HST,Max TemperatureF,Mean TemperatureF,Min TemperatureF,Max Dew PointF,MeanDew PointF,Min DewpointF,Max Humidity, Mean Humidity, Min Humidity, Max Sea Level PressureIn, Mean Sea Level PressureIn, Min Sea Level PressureIn, Max VisibilityMiles, Mean VisibilityMiles, Min VisibilityMiles, Max Wind SpeedMPH, Mean Wind SpeedMPH, Max Gust SpeedMPH,PrecipitationIn, CloudCover, Events, WindDirDegrees
2013-4-1,69,64,60,57,55,52,84,74,59,30.01,29.97,29.92,10,10,10,16,6,22,0.00,7,Rain,350
2013-4-2,72,66,58,55,53,49,85,66,43,30.08,30.02,29.96,10,10,10,14,5,17,0.00,3,,330
2013-4-3,73,65,57,59,57,53,90,73,55,30.08,30.03,29.99,10,10,10,13,6,17,0.00,5,,38
2013-4-4,75,66,58,62,59,56,92,75,56,30.07,30.03,29.98,10,10,10,8,4,,0.00,4,Rain,324
2013-4-5,78,68,59,63,60,57,92,74,53,30.12,30.06,30.01,10,10,10,15,6,18,0.00,1,Rain,63
2013-4-6,80,72,63,68,65,61,95,83,59,30.15,30.08,30.04,10,10,9,14,4,,0.08,3,Rain,41
2013-4-7,80,72,63,66,64,61,93,77,57,30.16,30.11,30.05,10,10,10,16,6,,0.00,1,,30
2013-4-8,78,72,66,64,61,57,90,69,48,30.09,30.04,29.96,10,10,10,14,5,,0.00,3,Rain,71
2013-4-9,79,71,63,64,62,59,89,72,54,30.06,30.01,29.95,10,10,10,14,5,21,0.00,3,Rain,77
2013-4-10,80,72,63,66,63,59,94,79,50,30.05,30.02,29.95,10,10,4,17,4,26,0.03,2,Rain,92
2013-4-11,81,71,61,66,64,60,93,77,52,30.03,29.97,29.94,10,10,9,12,2,,0.00,4,,111
2013-4-12,78,73,66,67,66,64,94,79,63,29.96,29.92,29.88,10,10,10,10,4,16,0.00,5,Rain,162
2013-4-13,77,72,66,68,67,64,94,85,65,29.96,29.89,29.83,10,10,7,14,5,20,0.03,3,Rain-Thunderstorm,157
2013-4-14,77,70,64,70,67,63,100,92,66,29.95,29.88,29.85,10,7,1,16,5,24,0.80,7,Rain,160
2013-4-15,73,70,66,68,67,65,100,90,83,30.05,29.98,29.91,10,10,5,9,3,,0.05,7,Rain,142
2013-4-16,80,70,61,68,65,61,97,79,58,30.10,30.04,29.99,10,10,10,12,2,,0.00,2,,347
2013-4-17,79,71,63,66,64,61,92,75,60,30.14,30.09,30.04,10,10,9,16,6,23,0.00,3,Rain,61
2013-4-18,78,72,67,65,64,62,88,78,58,30.14,30.11,30.06,10,10,9,17,5,24,0.00,4,Rain,76
2013-4-19,77,70,63,70,66,61,94,83,68,30.13,30.09,30.04,10,9,2,17,6,20,0.05,6,Rain,97
2013-4-20,79,71,63,66,65,62,94,79,59,30.07,30.03,29.99,10,10,10,7,2,,0.00,6,Rain,159
2013-4-21,78,70,63,68,65,62,95,88,60,30.02,29.98,29.94,10,10,9,9,1,,0.00,4,Rain,155
2013-4-22,77,72,67,70,68,66,100,90,72,30.03,30.00,29.94,10,9,5,14,3,20,0.24,5,Rain,168
2013-4-23,78,73,68,70,67,65,95,87,64,30.05,30.00,29.96,10,10,9,12,6,18,0.02,5,Rain,301
2013-4-24,79,72,66,68,66,64,100,93,61,30.08,30.02,29.99,10,6,1,14,2,,0.91,7,Rain-Thunderstorm,58
2013-4-25,79,74,67,64,62,61,80,64,55,30.05,30.02,29.99,10,10,10,13,8,20,0.00,3,,100
2013-4-26,78,71,64,63,62,60,90,72,54,30.04,30.01,29.97,10,10,10,16,4,22,0.00,3,,96
2013-4-27,79,70,61,65,62,59,91,76,56,30.04,30.00,29.95,10,10,10,8,3,,0.00,3,,176
2013-4-28,78,70,63,68,65,61,94,85,59,30.02,29.97,29.93,10,10,10,10,2,,0.00,5,,165
2013-4-29,78,73,66,69,68,64,94,86,68,29.97,29.93,29.89,10,10,10,12,5,20,0.00,5,Rain,178
2013-4-30,80,72,64,70,67,64,100,91,64,30.02,29.95,29.91,10,9,1,10,2,,0.55,6,Rain,289